Time;durP1;ratioP1;P1;durP2;ratioP2;P2;SDS_P1;SDS_P2;PMS_P1;PMS_P2;Temp;Humidity;BMP_temperature;BMP_pressure;BME280_temperature;BME280_humidity;BME280_pressure;Samples;Min_cycle;Max_cycle;Signal;HPM_P1;HPM_P2
2021/10/24 00:01:20;;;;;;;8.10;4.13;;;;;;;5.81;88.85;101171.03;4999072;28;20052;-73
2021/10/24 00:03:46;;;;;;;9.15;3.95;;;;;;;5.79;88.76;101175.13;5034839;28;20036;-72
2021/10/24 00:06:11;;;;;;;6.47;3.70;;;;;;;5.80;88.64;101171.31;5026921;28;20117;-73
2021/10/24 00:08:37;;;;;;;6.90;3.63;;;;;;;5.79;88.75;101175.13;5033449;28;20073;-73
2021/10/24 00:11:02;;;;;;;6.97;3.67;;;;;;;5.79;88.16;101186.16;5033725;28;20029;-73
2021/10/24 00:13:29;;;;;;;6.85;3.30;;;;;;;5.81;87.86;101179.31;5012974;28;20034;-73
2021/10/24 00:15:58;;;;;;;7.45;3.42;;;;;;;5.83;87.47;101177.16;5052703;28;20025;-73
2021/10/24 00:18:23;;;;;;;5.03;3.45;;;;;;;5.82;87.52;101180.16;5033420;28;20033;-73
2021/10/24 00:20:50;;;;;;;5.63;2.97;;;;;;;5.80;87.32;101177.66;5028375;28;20036;-73
2021/10/24 00:23:16;;;;;;;7.82;3.22;;;;;;;5.82;87.26;101180.16;5029773;28;20029;-73
2021/10/24 00:25:41;;;;;;;8.52;3.35;;;;;;;5.79;86.80;101181.50;5032929;28;20053;-73
2021/10/24 00:28:08;;;;;;;7.88;3.67;;;;;;;5.77;86.82;101183.66;5015152;28;20065;-73
2021/10/24 00:30:34;;;;;;;7.20;3.70;;;;;;;5.78;86.63;101182.56;5034377;28;20497;-73
2021/10/24 00:33:03;;;;;;;6.80;3.35;;;;;;;5.73;86.71;101184.38;5032962;28;20041;-73
2021/10/24 00:35:29;;;;;;;6.00;3.53;;;;;;;5.71;86.62;101178.28;5034757;28;20049;-73
2021/10/24 00:37:54;;;;;;;4.82;2.97;;;;;;;5.68;86.75;101178.78;5034376;28;20044;-72
2021/10/24 00:40:20;;;;;;;6.97;3.00;;;;;;;5.66;86.50;101170.75;5013593;28;20072;-73
2021/10/24 00:42:47;;;;;;;5.60;3.35;;;;;;;5.61;86.75;101167.91;5027543;28;20034;-73
2021/10/24 00:45:13;;;;;;;5.97;2.75;;;;;;;5.60;86.55;101164.31;5031921;28;20033;-73
2021/10/24 00:47:38;;;;;;;4.25;3.13;;;;;;;5.58;86.46;101160.13;5031800;28;20033;-73
2021/10/24 00:50:04;;;;;;;4.82;3.17;;;;;;;5.50;86.75;101166.84;5032106;28;20083;-73
2021/10/24 00:52:29;;;;;;;5.65;3.03;;;;;;;5.48;86.58;101159.91;5035488;28;20508;-73
2021/10/24 00:54:55;;;;;;;6.97;2.83;;;;;;;5.45;86.68;101164.00;5033321;28;20041;-73
2021/10/24 00:57:20;;;;;;;6.45;3.05;;;;;;;5.42;86.81;101161.72;5033356;28;20022;-73
2021/10/24 00:59:46;;;;;;;5.80;2.92;;;;;;;5.39;86.84;101159.47;5034515;28;20436;-73
2021/10/24 01:02:12;;;;;;;7.57;3.08;;;;;;;5.38;86.61;101158.63;5028856;28;20030;-73
2021/10/24 01:04:38;;;;;;;5.97;3.42;;;;;;;5.34;86.92;101149.16;5055029;28;20098;-73
2021/10/24 01:07:04;;;;;;;5.22;3.10;;;;;;;5.28;86.93;101152.91;5029473;28;20843;-73
2021/10/24 01:09:30;;;;;;;6.15;3.15;;;;;;;5.27;87.06;101161.41;5030531;28;20037;-72
2021/10/24 01:11:56;;;;;;;7.30;3.35;;;;;;;5.24;86.86;101160.00;5029908;28;20087;-73
2021/10/24 01:14:22;;;;;;;6.65;3.58;;;;;;;5.23;86.96;101165.72;5028060;28;20530;-72
2021/10/24 01:16:48;;;;;;;7.68;3.55;;;;;;;5.22;86.79;101164.91;5034564;28;20026;-73
2021/10/24 01:19:14;;;;;;;7.03;3.38;;;;;;;5.18;86.90;101154.59;5034101;28;20025;-73
2021/10/24 01:21:39;;;;;;;7.85;3.50;;;;;;;5.15;87.05;101148.50;5037424;28;20370;-73
2021/10/24 01:24:05;;;;;;;5.53;3.28;;;;;;;5.14;87.05;101146.81;5020376;28;20045;-73
2021/10/24 01:26:36;;;;;;;7.18;3.53;;;;;;;5.17;86.62;101144.66;5036504;28;20087;-73
2021/10/24 01:29:02;;;;;;;8.82;5.10;;;;;;;5.10;87.17;101140.13;5044423;28;20548;-73
2021/10/24 01:31:27;;;;;;;11.38;6.20;;;;;;;5.09;86.99;101135.69;5029141;28;20022;-73
2021/10/24 01:33:53;;;;;;;10.63;6.15;;;;;;;5.02;87.09;101132.25;5037791;28;20040;-73
2021/10/24 01:36:18;;;;;;;9.52;5.70;;;;;;;5.04;87.11;101130.09;5030452;28;20084;-73
2021/10/24 01:38:45;;;;;;;10.45;5.88;;;;;;;4.99;87.09;101130.00;5053286;28;20422;-73
2021/10/24 01:41:12;;;;;;;10.75;5.70;;;;;;;4.97;87.09;101126.63;5037660;28;20036;-73
2021/10/24 01:43:38;;;;;;;9.82;5.38;;;;;;;4.96;87.13;101122.22;5031809;28;20025;-73
2021/10/24 01:46:04;;;;;;;9.07;5.07;;;;;;;4.92;87.46;101123.75;5027678;28;20034;-73
2021/10/24 01:48:29;;;;;;;8.80;5.10;;;;;;;4.88;87.30;101112.41;5039278;28;20061;-73
2021/10/24 01:50:55;;;;;;;9.85;5.20;;;;;;;4.88;87.58;101111.56;5033846;28;20045;-73
2021/10/24 01:53:27;;;;;;;8.77;4.43;;;;;;;4.88;87.40;101114.31;5037128;28;20079;-73
2021/10/24 01:55:52;;;;;;;11.38;4.43;;;;;;;4.84;87.68;101102.09;5045989;28;20029;-72
2021/10/24 01:58:18;;;;;;;11.15;4.50;;;;;;;4.78;87.87;101097.56;5041937;28;20029;-73
2021/10/24 02:00:44;;;;;;;7.05;4.32;;;;;;;4.82;87.94;101096.00;5035830;28;20033;-72
2021/10/24 02:03:12;;;;;;;10.07;4.80;;;;;;;4.77;88.14;101091.25;5037107;28;20033;-73
2021/10/24 02:05:38;;;;;;;7.95;4.18;;;;;;;4.76;88.06;101072.22;5035731;28;20784;-73
2021/10/24 02:08:04;;;;;;;9.68;3.95;;;;;;;4.77;88.12;101082.16;5037661;28;20041;-73
2021/10/24 02:10:29;;;;;;;10.38;4.43;;;;;;;4.73;88.65;101068.03;5037124;28;20055;-73
2021/10/24 02:12:55;;;;;;;7.18;4.30;;;;;;;4.77;88.61;101054.63;5033792;28;20026;-73
2021/10/24 02:15:21;;;;;;;7.82;4.03;;;;;;;4.70;89.16;101038.25;5030853;28;20504;-72
2021/10/24 02:17:46;;;;;;;10.23;3.80;;;;;;;4.72;89.11;101043.53;5035189;28;20079;-73
2021/10/24 02:20:12;;;;;;;10.50;4.78;;;;;;;4.73;89.18;101039.69;5036751;28;20040;-73
2021/10/24 02:22:38;;;;;;;8.50;4.20;;;;;;;4.69;89.25;101040.16;5038034;28;20036;-72
2021/10/24 02:25:04;;;;;;;10.38;4.75;;;;;;;4.67;89.77;101049.72;5033989;28;20138;-73
2021/10/24 02:27:29;;;;;;;9.15;4.68;;;;;;;4.69;90.06;101040.16;5036763;28;20112;-73
2021/10/24 02:29:55;;;;;;;7.45;4.13;;;;;;;4.70;89.77;101035.50;5024175;28;20109;-72
2021/10/24 02:32:20;;;;;;;10.40;3.95;;;;;;;4.70;89.92;101036.31;5034851;28;20037;-73
2021/10/24 02:34:46;;;;;;;10.25;4.22;;;;;;;4.68;90.01;101027.50;5036143;28;20021;-73
2021/10/24 02:37:11;;;;;;;6.32;4.10;;;;;;;4.68;90.26;101027.50;5035801;28;20033;-73
2021/10/24 02:39:37;;;;;;;6.47;3.83;;;;;;;4.69;90.49;101020.91;5024385;28;20088;-73
2021/10/24 02:42:02;;;;;;;7.57;3.78;;;;;;;4.72;90.32;101021.50;5035448;28;20026;-72
2021/10/24 02:44:28;;;;;;;7.90;4.18;;;;;;;4.76;89.96;101015.25;5037680;28;20044;-73
2021/10/24 02:46:56;;;;;;;9.43;3.80;;;;;;;4.74;89.93;101014.69;5033666;28;20040;-73
2021/10/24 02:49:22;;;;;;;9.32;3.75;;;;;;;4.74;90.21;101024.84;5035449;28;20022;-73
2021/10/24 02:51:48;;;;;;;5.25;3.90;;;;;;;4.76;90.15;101014.41;5024018;28;20430;-73
2021/10/24 02:54:14;;;;;;;6.38;3.15;;;;;;;4.76;90.12;101014.41;5036951;28;20037;-73
2021/10/24 02:56:39;;;;;;;10.25;3.97;;;;;;;4.75;90.39;101010.00;5038339;28;20033;-73
2021/10/24 02:59:05;;;;;;;8.13;3.65;;;;;;;4.73;90.06;101014.91;5056896;28;20033;-73
2021/10/24 03:01:30;;;;;;;6.65;3.20;;;;;;;4.73;90.14;101012.16;5036646;28;20029;-72
2021/10/24 03:03:56;;;;;;;6.00;3.40;;;;;;;4.73;90.11;101006.66;5035026;28;20037;-73
2021/10/24 03:06:22;;;;;;;8.38;3.28;;;;;;;4.75;90.24;100999.00;5036970;28;20026;-73
2021/10/24 03:08:47;;;;;;;6.32;3.63;;;;;;;4.73;90.04;100985.47;5033402;28;20033;-73
2021/10/24 03:11:13;;;;;;;7.35;3.95;;;;;;;4.74;90.30;100986.34;5035061;28;20389;-73
2021/10/24 03:13:38;;;;;;;6.28;3.67;;;;;;;4.70;90.76;100981.28;5036500;28;20052;-73
2021/10/24 03:16:04;;;;;;;8.30;3.80;;;;;;;4.76;90.21;100981.41;5034054;28;20040;-73
2021/10/24 03:18:29;;;;;;;9.15;3.60;;;;;;;4.69;90.67;100979.63;5027069;28;20029;-73
2021/10/24 03:20:55;;;;;;;7.28;3.65;;;;;;;4.73;90.64;100984.63;5037093;28;20025;-73
2021/10/24 03:23:20;;;;;;;6.97;3.55;;;;;;;4.69;90.63;100982.38;5036086;28;20370;-73
2021/10/24 03:25:46;;;;;;;5.20;3.25;;;;;;;4.72;90.55;100981.06;5034746;28;20091;-73
2021/10/24 03:28:12;;;;;;;6.72;4.03;;;;;;;4.73;90.43;100979.13;5036873;28;20029;-73
2021/10/24 03:30:38;;;;;;;5.60;3.40;;;;;;;4.68;90.62;100971.59;5033941;28;20037;-73
2021/10/24 03:33:03;;;;;;;6.43;3.30;;;;;;;4.68;90.71;100966.97;5033979;28;20121;-73
2021/10/24 03:35:29;;;;;;;6.90;3.47;;;;;;;4.65;90.80;100970.22;5036792;28;20044;-73
2021/10/24 03:37:54;;;;;;;6.55;3.35;;;;;;;4.72;90.31;100967.31;5034502;28;20063;-73
2021/10/24 03:40:20;;;;;;;7.68;3.75;;;;;;;4.68;90.51;100961.47;5034493;28;20052;-73
2021/10/24 03:42:45;;;;;;;8.38;3.80;;;;;;;4.62;91.00;100967.91;5022297;28;20079;-73
2021/10/24 03:45:11;;;;;;;9.60;3.17;;;;;;;4.62;90.97;100959.66;5033264;28;20048;-73
2021/10/24 03:47:36;;;;;;;5.95;3.33;;;;;;;4.63;90.99;100963.28;5035928;28;20038;-73
2021/10/24 03:50:03;;;;;;;6.78;3.60;;;;;;;4.66;90.84;100971.03;5034462;28;20037;-73
2021/10/24 03:52:29;;;;;;;7.50;3.58;;;;;;;4.64;90.80;100968.50;5036148;28;20028;-73
2021/10/24 03:54:54;;;;;;;7.93;3.65;;;;;;;4.62;90.98;100965.16;5033519;28;20029;-73
2021/10/24 03:57:20;;;;;;;6.35;3.50;;;;;;;4.65;90.86;100970.22;5035816;28;20036;-73
2021/10/24 03:59:45;;;;;;;7.13;3.25;;;;;;;4.64;90.72;100965.75;5043047;28;20026;-73
2021/10/24 04:02:11;;;;;;;6.93;3.70;;;;;;;4.64;90.72;100965.75;5034973;28;20462;-73
2021/10/24 04:04:38;;;;;;;6.50;3.67;;;;;;;4.58;90.82;100964.00;5034701;28;20371;-73
2021/10/24 04:07:04;;;;;;;6.57;3.97;;;;;;;4.60;90.75;100964.59;5033926;28;20447;-73
2021/10/24 04:09:29;;;;;;;5.70;3.38;;;;;;;4.57;91.11;100962.34;5036746;28;20029;-73
2021/10/24 04:11:55;;;;;;;5.85;3.35;;;;;;;4.56;91.06;100968.88;5034692;28;20041;-73
2021/10/24 04:14:20;;;;;;;7.07;3.53;;;;;;;4.55;90.82;100961.72;5031173;28;20044;-73
2021/10/24 04:16:46;;;;;;;6.70;3.33;;;;;;;4.56;91.15;100962.56;5035339;28;20057;-73
2021/10/24 04:19:11;;;;;;;9.23;4.00;;;;;;;4.51;91.52;100960.53;5033520;28;20374;-72
2021/10/24 04:21:37;;;;;;;5.30;3.28;;;;;;;4.54;91.07;100961.97;5017426;28;20030;-72
2021/10/24 04:24:02;;;;;;;7.47;3.65;;;;;;;4.53;90.94;100961.13;5033950;28;20099;-72
2021/10/24 04:26:28;;;;;;;7.03;3.13;;;;;;;4.52;90.88;100958.63;5034273;28;20061;-72
2021/10/24 04:28:53;;;;;;;6.63;3.28;;;;;;;4.54;90.64;100965.56;5032871;28;20037;-73
2021/10/24 04:31:19;;;;;;;6.85;3.22;;;;;;;4.50;90.33;100964.38;5032942;28;20049;-73
2021/10/24 04:33:45;;;;;;;7.38;3.53;;;;;;;4.49;90.88;100957.22;5034513;28;20386;-73
2021/10/24 04:36:11;;;;;;;5.88;3.13;;;;;;;4.46;90.88;100960.44;5032316;28;20052;-73
2021/10/24 04:38:36;;;;;;;4.88;3.20;;;;;;;4.44;91.16;100959.84;5032220;28;20041;-73
2021/10/24 04:41:01;;;;;;;5.20;3.00;;;;;;;4.48;90.85;100963.75;5032605;28;20517;-73
2021/10/24 04:43:27;;;;;;;5.13;3.50;;;;;;;4.43;91.04;100953.50;5032347;28;20060;-73
2021/10/24 04:45:53;;;;;;;8.80;3.42;;;;;;;4.40;91.32;100944.88;5033525;28;20044;-72
2021/10/24 04:48:18;;;;;;;7.10;3.20;;;;;;;4.40;91.32;100955.88;5037840;28;20104;-72
2021/10/24 04:50:44;;;;;;;6.40;3.47;;;;;;;4.38;91.16;100949.81;5036114;28;20048;-73
2021/10/24 04:53:09;;;;;;;7.15;3.20;;;;;;;4.34;91.82;100960.44;5037153;28;20054;-73
2021/10/24 04:55:35;;;;;;;5.72;3.25;;;;;;;4.34;91.71;100959.63;5031105;28;20030;-72
2021/10/24 04:58:00;;;;;;;5.85;3.28;;;;;;;4.37;91.38;100964.63;5038687;28;20033;-73
2021/10/24 05:00:26;;;;;;;7.90;3.40;;;;;;;4.31;91.76;100960.94;5035944;28;20029;-73
2021/10/24 05:02:52;;;;;;;6.13;3.05;;;;;;;4.34;91.32;100962.38;5034474;28;20079;-72
2021/10/24 05:05:17;;;;;;;5.47;3.20;;;;;;;4.34;91.33;100962.38;5038245;28;20033;-73
2021/10/24 05:07:43;;;;;;;7.10;3.33;;;;;;;4.35;91.43;100958.56;5038633;28;20038;-73
2021/10/24 05:10:08;;;;;;;5.05;3.05;;;;;;;4.33;91.68;100958.78;5036471;28;20064;-73
2021/10/24 05:12:34;;;;;;;7.63;4.03;;;;;;;4.32;91.65;100957.13;5039304;28;20051;-73
2021/10/24 05:14:59;;;;;;;9.57;3.25;;;;;;;4.28;91.88;100958.66;5030445;28;20025;-73
2021/10/24 05:17:25;;;;;;;5.30;3.20;;;;;;;4.22;92.36;100963.22;5035511;28;20030;-72
2021/10/24 05:19:50;;;;;;;5.95;3.72;;;;;;;4.25;92.28;100957.22;5037549;28;20037;-73
2021/10/24 05:22:16;;;;;;;8.00;3.20;;;;;;;4.23;92.38;100959.41;5039266;28;20033;-73
2021/10/24 05:24:41;;;;;;;7.22;3.65;;;;;;;4.26;92.28;100958.06;5036446;28;20418;-73
2021/10/24 05:27:07;;;;;;;6.20;3.30;;;;;;;4.24;92.39;100961.06;5038986;28;20419;-73
2021/10/24 05:29:32;;;;;;;7.15;3.20;;;;;;;4.25;92.39;100962.72;5037518;28;20029;-73
2021/10/24 05:31:58;;;;;;;8.27;5.82;;;;;;;4.25;92.53;100951.72;5036705;28;20032;-73
2021/10/24 05:34:23;;;;;;;7.82;4.28;;;;;;;4.26;92.09;100958.06;5036848;28;20387;-72
2021/10/24 05:36:49;;;;;;;6.20;4.30;;;;;;;4.23;92.04;100959.41;5036430;28;20076;-72
2021/10/24 05:39:14;;;;;;;7.93;4.05;;;;;;;4.28;91.89;100952.34;5034956;28;20034;-71
2021/10/24 05:41:40;;;;;;;5.18;3.78;;;;;;;4.23;92.06;100953.06;5035683;28;20032;-72
2021/10/24 05:44:05;;;;;;;5.80;3.55;;;;;;;4.20;92.21;100957.13;5033984;28;20092;-72
2021/10/24 05:46:31;;;;;;;6.45;3.60;;;;;;;4.19;92.33;100951.88;5037123;28;20037;-72
2021/10/24 05:48:56;;;;;;;7.53;3.80;;;;;;;4.23;92.12;100956.66;5037772;28;20037;-72
2021/10/24 05:51:23;;;;;;;6.95;3.50;;;;;;;4.22;91.96;100960.47;5038022;28;20029;-72
2021/10/24 05:53:49;;;;;;;6.05;3.60;;;;;;;4.23;92.01;100958.56;5035841;28;20038;-72
2021/10/24 05:56:15;;;;;;;6.88;3.55;;;;;;;4.18;92.22;100951.03;5022895;28;20465;-72
2021/10/24 05:58:42;;;;;;;8.27;3.78;;;;;;;4.20;92.15;100951.63;5036770;28;20034;-72
2021/10/24 06:01:08;;;;;;;6.05;3.60;;;;;;;4.17;92.33;100949.34;5018354;28;20046;-72
2021/10/24 06:03:33;;;;;;;8.93;3.75;;;;;;;4.20;92.26;100946.13;5038019;28;20021;-72
2021/10/24 06:05:58;;;;;;;8.48;3.83;;;;;;;4.17;92.10;100949.34;5034467;28;20043;-72
2021/10/24 06:08:24;;;;;;;7.82;3.88;;;;;;;4.14;92.26;100943.50;5033802;28;20506;-72
2021/10/24 06:10:52;;;;;;;8.63;3.63;;;;;;;4.19;92.21;100952.69;5036243;28;20371;-72
2021/10/24 06:13:18;;;;;;;6.30;3.30;;;;;;;4.18;92.23;100944.69;5019697;28;20037;-72
2021/10/24 06:15:43;;;;;;;10.07;3.72;;;;;;;4.14;92.42;100941.59;5028332;28;20033;-72
2021/10/24 06:18:10;;;;;;;8.45;3.80;;;;;;;4.15;92.89;100946.03;5020256;28;20025;-72
2021/10/24 06:20:35;;;;;;;7.07;3.70;;;;;;;4.14;92.29;100947.09;4987689;28;20441;-73
2021/10/24 06:23:01;;;;;;;7.93;4.13;;;;;;;4.10;92.49;100947.84;5018906;28;20124;-72
2021/10/24 06:25:26;;;;;;;7.93;4.18;;;;;;;4.12;92.54;100937.41;5036419;28;20061;-72
2021/10/24 06:27:52;;;;;;;7.75;4.15;;;;;;;4.12;92.94;100934.66;5036920;28;20060;-72
2021/10/24 06:30:18;;;;;;;7.60;3.90;;;;;;;4.13;92.74;100937.19;5037352;28;20041;-72
2021/10/24 06:32:43;;;;;;;10.35;4.22;;;;;;;4.07;93.05;100935.41;5024520;28;20030;-72
2021/10/24 06:35:09;;;;;;;6.40;4.18;;;;;;;4.07;93.19;100938.16;5036938;28;20079;-72
2021/10/24 06:37:42;;;;;;;6.00;3.90;;;;;;;4.08;93.33;100937.06;5035160;28;20029;-72
2021/10/24 06:40:08;;;;;;;8.00;4.30;;;;;;;4.09;93.27;100941.47;5036011;28;20562;-72
2021/10/24 06:42:34;;;;;;;8.35;3.80;;;;;;;4.14;93.19;100938.84;5033110;28;20103;-73
2021/10/24 06:44:59;;;;;;;7.82;4.15;;;;;;;4.19;94.07;100936.22;5036279;28;20418;-73
2021/10/24 06:47:25;;;;;;;5.72;3.50;;;;;;;4.30;94.63;100930.94;5035480;28;20034;-73
2021/10/24 06:49:50;;;;;;;6.05;4.10;;;;;;;4.31;94.97;100935.34;5035390;28;20048;-73
2021/10/24 06:52:16;;;;;;;7.60;4.10;;;;;;;4.36;95.53;100930.78;5037320;28;20080;-72
2021/10/24 06:54:41;;;;;;;7.82;4.43;;;;;;;4.40;94.87;100933.88;5025785;28;20410;-72
2021/10/24 06:57:06;;;;;;;6.57;3.88;;;;;;;4.43;95.14;100933.41;5033361;28;20029;-74
2021/10/24 06:59:32;;;;;;;9.80;4.00;;;;;;;4.44;94.44;100926.84;5064148;28;20034;-74
2021/10/24 07:01:58;;;;;;;8.30;4.28;;;;;;;4.40;94.28;100928.38;5026447;28;20113;-73
2021/10/24 07:04:23;;;;;;;8.48;4.28;;;;;;;4.40;94.54;100931.13;5057859;28;20079;-74
2021/10/24 07:06:48;;;;;;;8.52;4.28;;;;;;;4.48;93.90;100934.38;5036165;28;20018;-74
2021/10/24 07:09:14;;;;;;;10.30;4.38;;;;;;;4.47;93.97;100943.69;5016066;28;20128;-74
2021/10/24 07:11:40;;;;;;;10.38;4.28;;;;;;;4.48;94.51;100930.75;5035100;28;20071;-74
2021/10/24 07:14:05;;;;;;;8.13;4.70;;;;;;;4.51;95.71;100938.53;5025810;28;20025;-73
2021/10/24 07:16:31;;;;;;;7.85;4.50;;;;;;;4.55;96.43;100933.41;5033499;28;20022;-73
2021/10/24 07:18:56;;;;;;;11.15;4.10;;;;;;;4.60;95.96;100937.09;5034214;28;20033;-73
2021/10/24 07:21:22;;;;;;;8.20;4.45;;;;;;;4.65;96.81;100928.94;5036031;28;20032;-73
2021/10/24 07:23:47;;;;;;;8.70;4.70;;;;;;;4.76;96.94;100935.44;5017955;28;20048;-73
2021/10/24 07:26:13;;;;;;;6.28;4.07;;;;;;;4.84;96.04;100942.50;5031318;28;20089;-73
2021/10/24 07:28:38;;;;;;;9.40;4.40;;;;;;;4.95;95.83;100938.03;5035329;28;20056;-73
2021/10/24 07:31:04;;;;;;;8.52;4.10;;;;;;;5.02;96.04;100934.03;5034717;28;20033;-73
2021/10/24 07:33:29;;;;;;;7.72;4.45;;;;;;;5.11;95.59;100940.81;5034268;28;20036;-73
2021/10/24 07:35:56;;;;;;;9.27;4.57;;;;;;;5.24;96.15;100941.59;5026597;28;20386;-73
2021/10/24 07:38:22;;;;;;;11.82;4.40;;;;;;;5.37;95.89;100933.81;5063095;28;20094;-73
2021/10/24 07:40:49;;;;;;;10.32;4.10;;;;;;;5.51;95.78;100948.09;5016780;28;20026;-71
2021/10/24 07:43:16;;;;;;;10.65;4.40;;;;;;;5.60;95.52;100943.88;5034634;28;20037;-71
2021/10/24 07:45:42;;;;;;;6.25;3.80;;;;;;;5.72;95.14;100943.78;5032195;28;20680;-71
2021/10/24 07:48:07;;;;;;;8.82;4.10;;;;;;;5.85;95.25;100945.38;5047585;28;20044;-71
2021/10/24 07:50:33;;;;;;;7.68;3.85;;;;;;;5.99;94.89;100943.09;5033559;28;20445;-71
2021/10/24 07:53:00;;;;;;;7.25;3.63;;;;;;;6.07;94.28;100942.66;5032083;28;20041;-71
2021/10/24 07:55:28;;;;;;;7.00;3.72;;;;;;;6.15;94.14;100941.41;5034882;28;20025;-71
2021/10/24 07:57:55;;;;;;;5.65;3.65;;;;;;;6.24;93.93;100946.25;5033355;28;20035;-71
2021/10/24 08:00:21;;;;;;;8.38;3.75;;;;;;;6.31;93.67;100946.06;5016829;28;20037;-72
2021/10/24 08:02:46;;;;;;;6.38;3.47;;;;;;;6.41;94.08;100946.19;5019706;28;20567;-72
2021/10/24 08:05:12;;;;;;;7.72;3.80;;;;;;;6.49;93.92;100945.75;5032610;28;20025;-74
2021/10/24 08:07:39;;;;;;;10.60;6.40;;;;;;;6.53;93.34;100937.78;4998752;28;20025;-72
2021/10/24 08:10:06;;;;;;;11.02;5.45;;;;;;;6.58;92.98;100945.31;5033611;28;20080;-72
2021/10/24 08:12:32;;;;;;;8.50;4.90;;;;;;;6.61;92.75;100942.03;5002004;28;20064;-72
2021/10/24 08:14:58;;;;;;;10.00;5.18;;;;;;;6.66;92.62;100947.63;5028069;28;20033;-72
2021/10/24 08:17:27;;;;;;;7.20;4.20;;;;;;;6.68;92.29;100951.75;5036804;28;20474;-74
2021/10/24 08:19:52;;;;;;;9.07;5.65;;;;;;;6.76;92.44;100946.91;5033610;28;20055;-71
2021/10/24 08:22:19;;;;;;;9.60;4.85;;;;;;;6.82;92.86;100949.44;5034644;28;20033;-71
2021/10/24 08:24:45;;;;;;;10.57;5.32;;;;;;;6.89;93.43;100952.03;5033256;28;20053;-72
2021/10/24 08:27:10;;;;;;;10.70;4.85;;;;;;;6.96;93.42;100957.34;4999543;28;20038;-73
2021/10/24 08:29:37;;;;;;;8.30;5.05;;;;;;;7.02;93.77;100959.06;5000436;28;20033;-73
2021/10/24 08:32:05;;;;;;;9.60;4.88;;;;;;;7.11;94.26;100957.50;4986268;28;20037;-73
2021/10/24 08:34:31;;;;;;;10.85;4.57;;;;;;;7.22;94.62;100956.53;5016394;28;20036;-74
2021/10/24 08:36:57;;;;;;;8.85;3.92;;;;;;;7.32;94.09;100958.53;5018068;28;20030;-73
2021/10/24 08:39:22;;;;;;;10.13;4.50;;;;;;;7.45;94.35;100957.28;5031806;28;20446;-73
2021/10/24 08:41:49;;;;;;;8.43;4.35;;;;;;;7.58;94.30;100954.09;5007468;28;20030;-73
2021/10/24 08:44:15;;;;;;;6.60;4.00;;;;;;;7.72;94.18;100960.84;4997309;28;20037;-73
2021/10/24 08:46:40;;;;;;;9.45;4.40;;;;;;;7.84;94.04;100952.38;5034170;28;20029;-73
2021/10/24 08:49:07;;;;;;;6.97;4.30;;;;;;;7.96;94.19;100943.88;5029216;28;20022;-73
2021/10/24 08:51:33;;;;;;;8.65;4.50;;;;;;;8.10;94.52;100956.13;5022575;28;20095;-73
2021/10/24 08:53:59;;;;;;;8.27;4.30;;;;;;;8.22;93.82;100954.00;4985108;28;20060;-73
2021/10/24 08:56:26;;;;;;;9.27;4.05;;;;;;;8.38;93.89;100956.84;4999915;28;20037;-72
2021/10/24 08:58:52;;;;;;;8.65;4.50;;;;;;;8.56;94.49;100964.75;5023763;28;20049;-72
2021/10/24 09:01:18;;;;;;;7.18;4.32;;;;;;;8.68;94.58;100961.75;5000274;28;20386;-73
2021/10/24 09:04:11;;;;;;;8.00;3.88;;;;;;;8.82;94.05;100962.91;5011502;28;20034;-73
2021/10/24 09:06:56;;;;;;;7.60;4.28;;;;;;;9.05;93.10;100967.13;5032916;28;20048;-72
2021/10/24 09:09:26;;;;;;;8.05;4.65;;;;;;;9.16;93.95;100967.97;5033802;28;20055;-75
2021/10/24 09:12:06;;;;;;;8.43;4.03;;;;;;;9.29;93.89;100966.63;5033223;28;20037;-74
2021/10/24 09:14:45;;;;;;;10.60;4.85;;;;;;;9.42;93.60;100949.47;5030901;28;20033;-72
2021/10/24 09:17:22;;;;;;;11.18;4.75;;;;;;;9.55;94.10;100946.13;5033925;28;20040;-73
2021/10/24 09:19:58;;;;;;;7.93;4.28;;;;;;;9.70;94.22;100945.31;5014245;28;20121;-73
2021/10/24 09:22:28;;;;;;;7.82;4.40;;;;;;;9.83;92.07;100943.91;5031624;28;20072;-73
2021/10/24 09:25:14;;;;;;;6.80;3.80;;;;;;;10.04;91.83;100941.97;5035283;28;20068;-72
2021/10/24 09:27:55;;;;;;;7.78;4.40;;;;;;;10.22;91.39;100943.31;5033459;28;20040;-72
2021/10/24 09:30:27;;;;;;;6.65;4.03;;;;;;;10.40;90.19;100945.53;5013885;28;20148;-73
2021/10/24 09:33:02;;;;;;;8.85;4.63;;;;;;;10.52;90.78;100942.41;5030852;28;20033;-73
2021/10/24 09:35:33;;;;;;;8.23;4.15;;;;;;;10.66;90.69;100942.66;5033425;28;20084;-73
2021/10/24 09:38:03;;;;;;;6.25;3.90;;;;;;;10.78;90.39;100948.72;5035320;28;20413;-73
2021/10/24 09:40:35;;;;;;;10.75;4.15;;;;;;;10.88;90.47;100936.72;5016697;28;20036;-75
2021/10/24 09:43:24;;;;;;;7.22;3.75;;;;;;;10.98;89.66;100933.03;5036278;28;20498;-75
2021/10/24 09:46:07;;;;;;;6.75;3.40;;;;;;;11.11;87.10;100938.78;5023365;28;20033;-71
2021/10/24 09:48:33;;;;;;;6.85;3.75;;;;;;;11.22;86.67;100934.00;5035549;28;20091;-71
2021/10/24 09:51:07;;;;;;;6.18;3.33;;;;;;;11.32;85.85;100930.34;5027598;28;20029;-70
2021/10/24 09:53:36;;;;;;;7.38;3.40;;;;;;;11.37;86.78;100936.69;5037544;28;20037;-70
2021/10/24 09:56:12;;;;;;;8.20;4.40;;;;;;;11.44;87.66;100938.31;5034644;28;20044;-70
2021/10/24 09:58:38;;;;;;;6.45;3.72;;;;;;;11.52;86.05;100940.47;5018456;28;20032;-71
2021/10/24 10:01:05;;;;;;;7.63;4.07;;;;;;;11.61;86.18;100933.16;5004826;28;20033;-70
2021/10/24 10:03:30;;;;;;;7.75;3.63;;;;;;;11.71;85.54;100941.44;5002775;28;20053;-70
2021/10/24 10:05:56;;;;;;;8.80;4.15;;;;;;;11.81;86.62;100940.50;4985312;28;20058;-68
2021/10/24 10:08:22;;;;;;;6.88;3.85;;;;;;;11.89;88.41;100944.66;5020606;28;20029;-68
2021/10/24 10:10:51;;;;;;;9.65;5.68;;;;;;;11.98;89.64;100942.88;5019248;28;20040;-69
2021/10/24 10:13:20;;;;;;;8.23;5.15;;;;;;;12.08;88.77;100949.19;5020744;28;20033;-68
2021/10/24 10:15:47;;;;;;;6.85;4.20;;;;;;;12.21;88.25;100950.47;4985633;28;20037;-68
2021/10/24 10:18:12;;;;;;;6.30;4.30;;;;;;;12.29;88.62;100944.25;5002655;28;20085;-68
2021/10/24 10:20:51;;;;;;;9.45;4.20;;;;;;;12.44;88.79;100939.63;5008140;28;20091;-68
2021/10/24 10:23:40;;;;;;;9.10;4.13;;;;;;;12.59;88.88;100944.19;5018437;28;20498;-70
2021/10/24 10:26:43;;;;;;;8.10;4.10;;;;;;;12.75;88.24;100934.50;5034124;28;20061;-68
2021/10/24 10:29:14;;;;;;;8.77;4.40;;;;;;;12.85;88.61;100939.97;4996500;28;20077;-69
2021/10/24 10:31:41;;;;;;;7.20;3.88;;;;;;;13.05;86.40;100933.28;5043998;28;20133;-68
2021/10/24 10:34:08;;;;;;;8.73;3.88;;;;;;;13.12;87.21;100928.16;5016893;28;20073;-69
2021/10/24 10:36:49;;;;;;;6.55;3.67;;;;;;;13.20;87.99;100929.41;5044731;28;20085;-69
2021/10/24 10:39:33;;;;;;;7.05;3.55;;;;;;;13.35;87.11;100929.25;5035383;28;20415;-69
2021/10/24 10:42:22;;;;;;;6.82;3.95;;;;;;;13.49;85.84;100932.09;5035897;28;20052;-69
2021/10/24 10:45:15;;;;;;;5.65;3.85;;;;;;;13.57;86.79;100928.63;5036908;28;20116;-69
2021/10/24 10:47:56;;;;;;;8.68;3.63;;;;;;;13.65;87.38;100932.69;5018725;28;20041;-68
2021/10/24 10:50:27;;;;;;;6.57;3.70;;;;;;;13.71;87.36;100927.84;5040419;28;20033;-68
2021/10/24 10:52:53;;;;;;;8.38;3.55;;;;;;;13.81;87.16;100933.22;5015785;28;20039;-68
2021/10/24 10:55:18;;;;;;;5.47;3.40;;;;;;;13.88;87.13;100922.50;5018673;28;20029;-68
2021/10/24 10:57:44;;;;;;;5.15;3.50;;;;;;;13.95;86.83;100925.72;5019406;28;20053;-68
2021/10/24 11:00:34;;;;;;;6.38;3.53;;;;;;;14.05;85.90;100917.16;5019595;28;20026;-68
2021/10/24 11:03:00;;;;;;;6.68;3.80;;;;;;;14.18;84.34;100909.09;5032894;28;20443;-68
2021/10/24 11:05:38;;;;;;;6.65;3.75;;;;;;;14.34;83.00;100916.06;5035667;28;20116;-68
2021/10/24 11:08:05;;;;;;;5.72;3.45;;;;;;;14.38;84.38;100905.94;5032742;28;20040;-68
2021/10/24 11:10:44;;;;;;;5.50;3.08;;;;;;;14.43;85.35;100905.81;5002119;28;20087;-68
2021/10/24 11:13:28;;;;;;;7.22;3.45;;;;;;;14.48;84.78;100911.28;5001654;28;20102;-69
2021/10/24 11:15:54;;;;;;;6.53;3.45;;;;;;;14.60;83.83;100910.81;5036461;28;20026;-68
2021/10/24 11:18:31;;;;;;;7.07;3.75;;;;;;;14.71;84.26;100905.84;5017400;28;20030;-68
2021/10/24 11:20:56;;;;;;;5.80;3.67;;;;;;;14.77;84.51;100904.59;5018171;28;20040;-68
2021/10/24 11:23:22;;;;;;;4.93;2.90;;;;;;;14.86;84.88;100907.47;5019418;28;20041;-68
2021/10/24 11:25:50;;;;;;;7.82;3.95;;;;;;;14.93;84.59;100903.13;5016292;28;20391;-68
2021/10/24 11:28:22;;;;;;;5.15;3.47;;;;;;;15.05;84.16;100904.53;5019946;28;20043;-68
2021/10/24 11:30:55;;;;;;;8.48;3.40;;;;;;;15.16;83.48;100900.38;5002987;28;20478;-68
2021/10/24 11:33:20;;;;;;;4.88;3.15;;;;;;;15.27;83.72;100904.56;5030569;28;20040;-68